createdAt,value
2023-04-09T06:43:15.604Z,18.60
2023-04-09T06:43:26.881Z,19.40
2023-04-09T06:43:36.803Z,19.80
2023-04-09T06:43:46.892Z,19.90
2023-04-09T06:43:56.915Z,20.40
2023-04-09T06:44:07.073Z,21.00
2023-04-09T06:44:17.110Z,21.60
2023-04-09T06:44:27.201Z,21.70
2023-04-09T06:44:37.504Z,21.90
2023-04-09T06:44:47.498Z,22.00
2023-04-09T06:44:57.630Z,22.30
2023-04-09T06:45:07.891Z,22.30
2023-04-09T06:45:17.830Z,22.60
2023-04-09T06:45:27.945Z,22.70
2023-04-09T06:45:40.411Z,22.50
2023-04-09T06:45:48.309Z,23.00
2023-04-09T06:45:58.372Z,22.30
2023-04-09T06:46:08.502Z,22.40
2023-04-09T06:46:18.712Z,22.00
2023-04-09T06:46:28.760Z,21.90
2023-04-09T06:46:38.938Z,22.10
2023-04-09T06:46:49.156Z,21.80
2023-04-09T06:46:59.143Z,22.00
2023-04-09T06:47:09.241Z,21.90
2023-04-09T06:47:19.269Z,22.10
2023-04-09T06:47:29.555Z,22.50
2023-04-09T06:47:39.684Z,22.20
2023-04-09T06:47:49.762Z,22.10
2023-04-09T06:47:59.885Z,23.30
2023-04-09T06:48:09.927Z,23.10
2023-04-09T06:48:20.166Z,22.50
2023-04-09T06:48:30.237Z,22.60
2023-04-09T06:48:40.383Z,22.80
2023-04-09T06:48:50.429Z,22.90
2023-04-09T06:49:00.623Z,22.40
2023-04-09T06:49:10.691Z,22.80
2023-04-09T06:49:20.868Z,23.30
2023-04-09T06:49:30.988Z,23.80
2023-04-09T06:49:41.176Z,24.20
2023-04-09T06:49:51.209Z,23.90
2023-04-09T06:50:01.337Z,23.90
2023-04-09T06:50:11.467Z,23.80
2023-04-09T06:50:21.674Z,23.60
2023-04-09T06:50:31.704Z,22.80
2023-04-09T06:50:41.998Z,22.90
2023-04-09T06:50:52.046Z,23.20
2023-04-09T06:51:02.202Z,23.60
2023-04-09T06:51:12.317Z,23.70
2023-04-09T06:51:22.471Z,23.40
2023-04-09T06:51:32.507Z,23.80
2023-04-09T06:51:42.719Z,23.80
2023-04-09T06:51:52.899Z,23.80
2023-04-09T06:52:03.064Z,23.00
2023-04-09T06:52:13.069Z,23.20
2023-04-09T06:52:23.288Z,23.10
2023-04-09T06:52:33.440Z,22.00
2023-04-09T06:52:43.515Z,21.50
2023-04-09T06:52:53.674Z,21.50
2023-04-09T06:53:04.527Z,21.70
2023-04-09T06:53:13.921Z,21.10
2023-04-09T06:53:24.072Z,21.00
2023-04-09T06:53:34.220Z,21.20
2023-04-09T06:53:44.377Z,21.00
2023-04-09T06:53:54.709Z,20.70
2023-04-09T06:54:04.638Z,20.40
2023-04-09T06:54:14.868Z,20.70
2023-04-09T06:54:24.952Z,20.60
2023-04-09T06:54:34.924Z,20.20
2023-04-09T06:54:45.221Z,20.10
2023-04-09T06:54:55.382Z,20.30
2023-04-09T06:55:05.475Z,21.10
2023-04-09T06:55:15.513Z,20.90
2023-04-09T06:55:25.674Z,20.90
2023-04-09T06:55:36.449Z,21.80
2023-04-09T06:55:45.952Z,22.20
2023-04-09T06:55:57.005Z,22.30
2023-04-09T06:56:06.130Z,21.70
2023-04-09T06:56:16.231Z,22.00
2023-04-09T06:56:26.392Z,22.40
2023-04-09T06:56:46.721Z,22.30
2023-04-09T06:56:56.816Z,22.00
2023-04-09T06:57:06.971Z,22.10
2023-04-09T06:57:16.976Z,21.80
2023-04-09T06:57:27.167Z,21.60
2023-04-09T06:57:37.278Z,22.00
2023-04-09T06:57:47.609Z,21.80
2023-04-09T06:57:57.664Z,21.70
2023-04-09T06:58:07.857Z,22.90
2023-04-09T06:58:17.739Z,22.40
2023-04-09T06:58:27.970Z,22.80
2023-04-09T06:58:38.092Z,22.20
2023-04-09T06:58:48.219Z,22.20
2023-04-09T06:58:58.501Z,22.40
2023-04-09T06:59:08.516Z,21.20
2023-04-09T06:59:18.640Z,21.00
2023-04-09T06:59:28.908Z,20.30
2023-04-09T06:59:38.874Z,20.50
2023-04-09T06:59:49.051Z,20.30
2023-04-09T06:59:59.284Z,20.10
2023-04-09T07:00:09.372Z,20.00
2023-04-09T07:00:19.423Z,20.80
2023-04-09T07:00:29.590Z,21.20
2023-04-09T07:00:39.710Z,21.20
2023-04-09T07:00:49.805Z,21.30
2023-04-09T07:00:59.929Z,21.30
2023-04-09T07:01:10.170Z,22.10
2023-04-09T07:01:21.145Z,22.10
2023-04-09T07:01:30.530Z,22.30
2023-04-09T07:01:40.649Z,22.30
2023-04-09T07:01:51.386Z,22.30
2023-04-09T07:02:00.576Z,24.80
2023-04-09T07:02:10.702Z,46.70
2023-04-09T07:02:31.022Z,33.60
2023-04-09T07:02:40.959Z,34.00
2023-04-09T07:02:51.145Z,33.20
2023-04-09T07:03:01.257Z,29.60
2023-04-09T07:03:11.404Z,27.50
2023-04-09T07:03:21.430Z,27.80
2023-04-09T07:03:31.957Z,33.80
2023-04-09T07:03:41.715Z,31.70
2023-04-09T07:03:52.032Z,30.20
2023-04-09T07:04:02.484Z,29.10
2023-04-09T07:04:12.114Z,28.00
2023-04-09T07:04:22.122Z,28.30
2023-04-09T07:04:32.403Z,27.70
2023-04-09T07:04:42.420Z,27.20
2023-04-09T07:04:52.582Z,26.10
2023-04-09T07:05:02.582Z,25.30
2023-04-09T07:05:12.994Z,25.40
2023-04-09T07:05:22.867Z,24.60
2023-04-09T07:05:33.048Z,23.20
2023-04-09T07:05:43.156Z,22.70
2023-04-09T07:05:53.851Z,22.70
2023-04-09T07:06:04.270Z,22.90
2023-04-09T07:06:13.515Z,23.00
2023-04-09T07:06:23.609Z,22.40
2023-04-09T07:06:33.822Z,22.20
2023-04-09T07:06:43.857Z,22.20
2023-04-09T07:06:54.027Z,22.10
2023-04-09T07:07:14.238Z,22.00
2023-04-09T07:07:25.625Z,21.90
2023-04-09T07:07:34.536Z,22.00
2023-04-09T07:07:44.564Z,22.00
2023-04-09T07:07:54.640Z,22.40
2023-04-09T07:08:05.133Z,21.50
2023-04-09T07:08:14.957Z,21.30
2023-04-09T07:08:25.070Z,21.50
2023-04-09T07:08:35.276Z,21.70
2023-04-09T07:08:45.290Z,21.60
2023-04-09T07:08:55.647Z,21.70
2023-04-09T07:09:05.502Z,22.70
2023-04-09T07:09:15.635Z,23.00
2023-04-09T07:09:25.717Z,23.20
2023-04-09T07:09:35.888Z,23.30
2023-04-09T07:09:46.127Z,23.60
2023-04-09T07:09:56.331Z,23.50
2023-04-09T07:10:06.339Z,23.60
2023-04-09T07:10:16.414Z,24.10
2023-04-09T07:10:26.617Z,24.50
2023-04-09T07:10:36.780Z,24.40
2023-04-09T07:10:46.889Z,24.30
2023-04-09T07:10:57.041Z,24.80
2023-04-09T07:11:07.243Z,24.60
2023-04-09T07:11:17.224Z,24.00
2023-04-09T07:11:27.455Z,24.10
2023-04-09T07:11:37.512Z,24.10
2023-04-09T07:11:47.665Z,24.30
2023-04-09T07:11:57.858Z,23.80
2023-04-09T07:12:07.913Z,23.80
2023-04-09T07:12:18.045Z,23.90
2023-04-09T07:12:28.155Z,23.70
2023-04-09T07:16:57.171Z,15.30
2023-04-09T07:17:08.210Z,16.00
2023-04-09T07:17:18.029Z,19.60
2023-04-09T07:17:28.375Z,21.80
2023-04-09T07:17:38.445Z,22.60
2023-04-09T07:17:48.722Z,24.60
2023-04-09T07:17:58.636Z,28.10
2023-04-09T07:18:09.308Z,29.00
2023-04-09T07:18:19.054Z,28.10
2023-04-09T07:18:29.207Z,27.10
2023-04-09T07:18:39.276Z,27.00
2023-04-09T07:18:49.364Z,27.10
2023-04-09T07:18:59.595Z,26.90
2023-04-09T07:19:09.959Z,27.60
2023-04-09T07:19:19.749Z,28.20
2023-04-09T07:19:29.850Z,28.50
2023-04-09T07:19:39.987Z,28.70
2023-04-09T07:19:50.087Z,28.40
2023-04-09T07:20:00.176Z,28.00
2023-04-09T07:20:10.431Z,27.80
2023-04-09T07:20:20.591Z,27.00
2023-04-09T07:20:30.725Z,27.00
2023-04-09T07:20:40.746Z,26.20
2023-04-09T07:20:50.924Z,26.50
2023-04-09T07:21:00.984Z,27.00
2023-04-09T07:21:11.131Z,26.70
2023-04-09T07:21:21.316Z,27.20
2023-04-09T07:21:31.510Z,27.30
2023-04-09T07:21:41.481Z,27.60
2023-04-09T07:21:51.623Z,27.70
2023-04-09T07:22:01.755Z,27.10
2023-04-09T07:22:11.935Z,27.70
2023-04-09T07:22:22.080Z,27.80
2023-04-09T07:22:32.270Z,27.90
2023-04-09T07:22:42.349Z,28.10
2023-04-09T07:22:52.504Z,28.50
2023-04-09T07:23:02.512Z,28.40
2023-04-09T07:23:12.756Z,27.80
2023-04-09T07:23:22.853Z,28.00
2023-04-09T07:23:32.921Z,27.40
2023-04-09T07:23:43.082Z,27.40
2023-04-09T07:23:53.412Z,26.90
2023-04-09T07:24:03.221Z,28.00
2023-04-09T07:24:13.361Z,28.20
2023-04-09T07:24:23.482Z,27.90
2023-04-09T07:24:33.622Z,27.80
2023-04-09T07:24:43.748Z,27.50
2023-04-09T07:24:54.063Z,27.50
2023-04-09T07:25:03.950Z,27.40
2023-04-09T07:25:14.154Z,28.00
2023-04-09T07:25:24.841Z,27.90
2023-04-09T07:25:34.416Z,27.90
2023-04-09T07:25:44.581Z,28.10
2023-04-09T07:25:55.284Z,28.50
2023-04-09T07:26:04.823Z,28.60
2023-04-09T07:26:14.864Z,27.90
2023-04-09T07:26:25.004Z,28.20
2023-04-09T07:26:35.193Z,29.10
2023-04-09T07:26:45.353Z,29.20
2023-04-09T07:26:55.577Z,29.50
2023-04-09T07:27:05.615Z,28.60
2023-04-09T07:27:15.640Z,29.00
2023-04-09T07:27:25.843Z,28.80
2023-04-09T07:27:35.899Z,28.50
2023-04-09T07:27:46.046Z,28.80
2023-04-09T07:27:56.268Z,28.40
2023-04-09T07:28:06.298Z,28.50
2023-04-09T07:28:16.497Z,29.00
2023-04-09T07:28:26.687Z,29.10
2023-04-09T07:28:36.754Z,29.50
2023-04-09T07:28:46.859Z,29.50
2023-04-09T07:28:57.055Z,29.80
2023-04-09T07:29:07.195Z,30.30
2023-04-09T07:29:17.200Z,29.60
2023-04-09T07:29:27.314Z,29.50
2023-04-09T07:29:37.589Z,29.10
2023-04-09T07:29:47.585Z,29.20
2023-04-09T07:29:57.767Z,29.60
2023-04-09T07:30:07.925Z,29.70
2023-04-09T07:30:17.970Z,30.20
2023-04-09T07:30:28.113Z,30.40
2023-04-09T07:30:38.244Z,30.90
2023-04-09T07:30:49.338Z,31.00
2023-04-09T07:30:58.427Z,30.50
2023-04-09T07:31:08.617Z,30.20
2023-04-09T07:31:18.786Z,29.90
2023-04-09T07:31:28.933Z,29.60
2023-04-09T07:31:39.188Z,29.20
2023-04-09T07:31:59.462Z,29.40
2023-04-09T07:32:09.467Z,29.90
2023-04-09T07:32:19.594Z,29.50
2023-04-09T07:32:29.799Z,30.00
2023-04-09T07:32:39.878Z,29.60
2023-04-09T07:32:50.000Z,29.30
2023-04-09T07:33:00.333Z,29.30
2023-04-09T07:33:10.163Z,29.40
2023-04-09T07:33:20.295Z,29.90
2023-04-09T07:33:30.439Z,29.20
2023-04-09T07:33:40.548Z,29.20
2023-04-09T07:33:50.786Z,28.90
2023-04-09T07:34:00.776Z,28.50
2023-04-09T07:34:10.804Z,28.20
2023-04-09T07:34:21.007Z,28.00
2023-04-09T07:34:31.086Z,28.00
2023-04-09T07:34:41.252Z,27.40
2023-04-09T07:34:51.346Z,27.40
2023-04-09T07:35:01.557Z,26.60
2023-04-09T07:35:11.695Z,25.80
2023-04-09T07:35:21.783Z,26.00
2023-04-09T07:35:31.781Z,25.60
2023-04-09T07:35:42.087Z,25.90
2023-04-09T07:35:52.915Z,25.90
2023-04-09T07:36:02.264Z,26.40
2023-04-09T07:36:12.349Z,27.00
2023-04-09T07:36:22.350Z,26.90
2023-04-09T07:36:32.581Z,26.80
2023-04-09T07:36:42.737Z,26.50
2023-04-09T07:36:52.606Z,26.00
2023-04-09T07:37:02.818Z,25.60
2023-04-09T07:37:12.946Z,25.30
2023-04-09T07:37:23.125Z,24.60
2023-04-09T07:37:33.128Z,25.10
2023-04-09T07:37:43.234Z,24.90
2023-04-09T07:37:53.251Z,25.70
2023-04-09T07:38:03.475Z,25.40
2023-04-09T07:38:13.540Z,25.10
2023-04-09T07:38:23.768Z,24.90
2023-04-09T07:38:33.878Z,24.80
2023-04-09T07:38:44.074Z,24.70
2023-04-09T07:38:54.253Z,24.20
2023-04-09T07:39:04.265Z,24.40
2023-04-09T07:39:14.260Z,24.30
2023-04-09T07:39:24.426Z,24.80
2023-04-09T07:39:34.493Z,24.60
2023-04-09T07:39:44.724Z,24.80
2023-04-09T07:39:54.845Z,24.60
2023-04-09T07:40:04.944Z,24.50
2023-04-09T07:40:15.102Z,24.60
2023-04-09T07:40:25.208Z,24.60
2023-04-09T07:40:35.355Z,24.90
2023-04-09T07:40:45.406Z,24.90
2023-04-09T07:40:55.484Z,25.20
2023-04-09T07:41:05.723Z,25.30
2023-04-09T07:41:16.762Z,25.00
2023-04-09T07:41:25.949Z,24.80
2023-04-09T07:41:36.004Z,24.30
2023-04-09T07:41:46.287Z,24.10
2023-04-09T07:41:56.443Z,24.30
2023-04-09T07:42:06.476Z,24.50
2023-04-09T07:42:26.741Z,25.20
2023-04-09T07:42:36.873Z,25.50
2023-04-09T07:42:47.066Z,25.70
2023-04-09T07:42:57.180Z,25.30
2023-04-09T07:43:07.503Z,25.10
2023-04-09T07:43:17.367Z,25.30
2023-04-09T07:43:27.476Z,25.00
2023-04-09T07:43:37.607Z,24.60
2023-04-09T07:43:47.831Z,25.10
2023-04-09T07:43:57.984Z,24.70
2023-04-09T07:44:08.195Z,24.40
2023-04-09T07:44:19.707Z,24.10
2023-04-09T07:44:28.404Z,23.90
2023-04-09T07:44:38.398Z,24.00
2023-04-09T07:44:48.539Z,23.60
2023-04-09T07:44:58.660Z,24.50
2023-04-09T07:45:08.910Z,24.90
2023-04-09T07:45:29.030Z,25.50
2023-04-09T07:45:39.071Z,25.90
2023-04-09T07:45:49.279Z,25.70
2023-04-09T07:46:00.220Z,25.00
2023-04-09T07:46:09.547Z,24.80
2023-04-09T07:46:19.728Z,24.40
2023-04-09T07:46:29.847Z,23.70
2023-04-09T07:46:39.904Z,23.60
2023-04-09T07:46:50.175Z,23.30
2023-04-09T07:47:10.234Z,24.40
2023-04-09T07:47:20.822Z,24.60
2023-04-09T07:47:30.544Z,25.30
2023-04-09T07:47:40.693Z,25.20
2023-04-09T07:47:50.774Z,25.60
2023-04-09T07:48:00.903Z,25.50
2023-04-09T07:48:10.904Z,25.20
2023-04-09T07:48:21.151Z,25.10
2023-04-09T07:48:31.254Z,25.30
2023-04-09T07:48:41.238Z,25.60
2023-04-09T07:48:51.696Z,25.40
2023-04-09T07:49:01.465Z,25.30
2023-04-09T07:49:11.597Z,25.70
2023-04-09T07:49:21.674Z,25.30
2023-04-09T07:49:31.810Z,25.50
2023-04-09T07:49:42.016Z,25.50
2023-04-09T07:49:52.036Z,25.20
2023-04-09T07:50:02.347Z,25.60
2023-04-09T07:50:12.298Z,25.70
2023-04-09T07:50:22.561Z,26.20
2023-04-09T07:50:32.600Z,25.60
2023-04-09T07:50:42.673Z,26.20
2023-04-09T07:50:52.849Z,26.50
2023-04-09T07:51:03.074Z,26.20
2023-04-09T07:51:13.173Z,26.00
2023-04-09T07:51:23.297Z,26.30
2023-04-09T07:51:33.367Z,26.30
2023-04-09T07:51:43.573Z,26.50
2023-04-09T07:51:53.608Z,26.60
2023-04-09T07:52:03.804Z,26.80
2023-04-09T07:52:13.776Z,26.90
2023-04-09T07:52:24.080Z,26.60
2023-04-09T07:52:34.074Z,25.90
2023-04-09T07:52:44.337Z,25.50
2023-04-09T07:52:54.335Z,25.60
2023-04-09T07:53:04.439Z,25.10
2023-04-09T07:53:14.525Z,24.40
2023-04-09T07:53:24.865Z,24.70
2023-04-09T07:53:34.915Z,26.50
2023-04-09T07:53:45.122Z,26.50
